createdAt,value
2019-02-09T00:00:25.188Z,100603.41
2019-02-09T00:02:56.993Z,100602.08
2019-02-09T00:05:28.691Z,100594.86
2019-02-09T00:08:00.153Z,100592.31
2019-02-09T00:10:31.801Z,100598.30
2019-02-09T00:13:03.340Z,100589.64
2019-02-09T00:15:34.931Z,100595.31
2019-02-09T00:18:06.738Z,100595.73
2019-02-09T00:20:38.532Z,100590.63
2019-02-09T00:23:10.332Z,100587.13
2019-02-09T00:25:42.253Z,100588.88
2019-02-09T00:28:13.799Z,100590.73
2019-02-09T00:30:45.405Z,100589.75
2019-02-09T00:33:17.004Z,100588.49
2019-02-09T00:35:48.771Z,100591.58
2019-02-09T00:38:20.283Z,100584.72
2019-02-09T00:40:51.815Z,100580.89
2019-02-09T00:43:23.247Z,100581.81
2019-02-09T00:45:54.832Z,100573.96
2019-02-09T00:48:27.818Z,100571.45
2019-02-09T00:50:59.751Z,100574.88
2019-02-09T00:53:31.228Z,100574.64
2019-02-09T00:56:02.943Z,100571.73
2019-02-09T00:58:34.717Z,100564.55
2019-02-09T01:01:06.475Z,100562.35
2019-02-09T01:03:38.192Z,100554.23
2019-02-09T01:06:09.989Z,100557.70
2019-02-09T01:08:41.504Z,100552.09
2019-02-09T01:11:13.041Z,100549.54
2019-02-09T01:13:44.515Z,100546.31
2019-02-09T01:16:16.008Z,100540.27
2019-02-09T01:18:47.851Z,100541.59
2019-02-09T01:21:19.461Z,100538.97
2019-02-09T01:23:50.953Z,100535.47
2019-02-09T01:26:22.724Z,100528.44
2019-02-09T01:28:54.233Z,100530.15
2019-02-09T01:31:25.779Z,100524.16
2019-02-09T01:33:57.557Z,100522.87
2019-02-09T01:36:29.025Z,100521.23
2019-02-09T01:39:00.510Z,100521.23
2019-02-09T01:41:33.732Z,100516.85
2019-02-09T01:44:06.471Z,100514.33
2019-02-09T01:46:37.968Z,100508.84
2019-02-09T01:49:09.650Z,100504.81
2019-02-09T01:51:41.434Z,100506.56
2019-02-09T01:54:12.859Z,100500.64
2019-02-09T01:56:44.548Z,100492.05
2019-02-09T01:59:16.025Z,100490.89
2019-02-09T02:01:47.888Z,100491.03
2019-02-09T02:04:19.759Z,100487.04
2019-02-09T02:06:51.362Z,100478.09
2019-02-09T02:09:22.853Z,100480.11
2019-02-09T02:11:54.592Z,100472.52
2019-02-09T02:14:26.033Z,100471.19
2019-02-09T02:16:57.559Z,100469.83
2019-02-09T02:19:29.349Z,100468.14
2019-02-09T02:22:00.834Z,100467.80
2019-02-09T02:24:32.564Z,100466.96
2019-02-09T02:27:04.157Z,100459.19
2019-02-09T02:29:35.603Z,100465.21
2019-02-09T02:32:07.318Z,100466.92
2019-02-09T02:34:39.031Z,100463.00
2019-02-09T02:37:10.741Z,100468.46
2019-02-09T02:39:42.246Z,100458.67
2019-02-09T02:42:14.055Z,100463.43
2019-02-09T02:44:45.522Z,100451.53
2019-02-09T02:47:17.287Z,100448.34
2019-02-09T02:49:48.977Z,100449.36
2019-02-09T02:52:20.779Z,100448.31
2019-02-09T02:54:52.283Z,100448.66
2019-02-09T02:57:24.404Z,100441.95
2019-02-09T02:59:55.893Z,100445.20
2019-02-09T03:02:27.384Z,100435.36
2019-02-09T03:04:58.943Z,100430.91
2019-02-09T03:07:30.428Z,100430.88
2019-02-09T03:10:01.877Z,100428.25
2019-02-09T03:12:33.814Z,100433.35
2019-02-09T03:15:06.026Z,100426.23
2019-02-09T03:17:37.865Z,100430.11
2019-02-09T03:20:12.622Z,100420.48
2019-02-09T03:22:44.352Z,100413.52
2019-02-09T03:25:19.177Z,100413.41
2019-02-09T03:27:51.051Z,100403.20
2019-02-09T03:30:23.069Z,100406.52
2019-02-09T03:32:54.617Z,100391.73
2019-02-09T03:35:26.155Z,100397.78
2019-02-09T03:37:57.875Z,100397.98
2019-02-09T03:40:29.433Z,100391.05
2019-02-09T03:43:00.994Z,100383.97
2019-02-09T03:45:33.047Z,100377.48
2019-02-09T03:48:05.222Z,100373.34
2019-02-09T03:50:36.952Z,100374.59
2019-02-09T03:53:08.629Z,100377.11
2019-02-09T03:55:40.059Z,100374.91
2019-02-09T03:58:12.055Z,100368.39
2019-02-09T04:00:43.503Z,100369.19
2019-02-09T04:03:15.258Z,100360.84
2019-02-09T04:05:46.913Z,100354.06
2019-02-09T04:08:18.670Z,100359.28
2019-02-09T04:10:50.104Z,100346.75
2019-02-09T04:13:21.728Z,100339.06
2019-02-09T04:15:53.175Z,100339.36
2019-02-09T04:18:24.715Z,100336.73
2019-02-09T04:20:56.389Z,100330.67
2019-02-09T04:23:27.947Z,100328.92
2019-02-09T04:25:59.395Z,100324.16
2019-02-09T04:28:30.939Z,100314.59
2019-02-09T04:31:05.739Z,100316.19
2019-02-09T04:33:36.075Z,100312.76
2019-02-09T04:36:07.907Z,100316.69
2019-02-09T04:38:39.683Z,100306.95
2019-02-09T04:41:11.385Z,100308.59
2019-02-09T04:43:42.882Z,100301.31
2019-02-09T04:46:14.482Z,100299.89
2019-02-09T04:48:45.925Z,100298.18
2019-02-09T04:51:17.426Z,100301.98
2019-02-09T04:53:49.098Z,100298.39
2019-02-09T04:56:20.636Z,100298.80
2019-02-09T04:58:52.161Z,100295.59
2019-02-09T05:01:23.687Z,100296.58
2019-02-09T05:03:55.284Z,100290.53
2019-02-09T05:06:26.910Z,100288.52
2019-02-09T05:08:58.425Z,100287.26
2019-02-09T05:11:29.882Z,100285.55
2019-02-09T05:14:01.442Z,100282.13
2019-02-09T05:16:32.905Z,100274.71
2019-02-09T05:19:04.675Z,100275.46
2019-02-09T05:21:36.469Z,100268.98
2019-02-09T05:24:08.163Z,100275.42
2019-02-09T05:26:39.691Z,100273.16
2019-02-09T05:29:11.182Z,100274.87
2019-02-09T05:31:42.787Z,100271.53
2019-02-09T05:34:14.303Z,100278.39
2019-02-09T05:36:46.100Z,100275.25
2019-02-09T05:39:17.576Z,100271.77
2019-02-09T05:41:49.028Z,100271.77
2019-02-09T05:44:20.793Z,100272.19
2019-02-09T05:46:52.323Z,100274.78
2019-02-09T05:49:24.123Z,100270.84
2019-02-09T05:51:55.862Z,100269.42
2019-02-09T05:54:27.625Z,100265.49
2019-02-09T05:56:59.164Z,100271.88
2019-02-09T05:59:31.343Z,100264.28
2019-02-09T06:02:02.810Z,100259.52
2019-02-09T06:04:34.555Z,100251.69
2019-02-09T06:07:07.450Z,100247.76
2019-02-09T06:09:39.206Z,100248.59
2019-02-09T06:12:10.671Z,100243.03
2019-02-09T06:14:42.413Z,100248.09
2019-02-09T06:17:15.145Z,100249.43
2019-02-09T06:19:46.957Z,100244.84
2019-02-09T06:22:18.640Z,100246.51
2019-02-09T06:24:50.283Z,100244.25
2019-02-09T06:27:21.752Z,100241.37
2019-02-09T06:29:53.585Z,100236.38
2019-02-09T06:32:25.112Z,100228.45
2019-02-09T06:34:56.600Z,100232.95
2019-02-09T06:37:28.102Z,100232.34
2019-02-09T06:39:59.812Z,100220.58
2019-02-09T06:42:31.302Z,100224.25
2019-02-09T06:45:02.757Z,100214.93
2019-02-09T06:47:34.244Z,100222.56
2019-02-09T06:50:07.961Z,100214.66
2019-02-09T06:52:39.789Z,100206.57
2019-02-09T06:55:13.627Z,100200.26
2019-02-09T06:57:45.095Z,100193.05
2019-02-09T07:00:18.949Z,100191.19
2019-02-09T07:02:50.486Z,100190.22
2019-02-09T07:05:22.293Z,100182.52
2019-02-09T07:07:54.203Z,100182.33
2019-02-09T07:10:26.437Z,100176.02
2019-02-09T07:12:57.910Z,100175.91
2019-02-09T07:15:29.820Z,100171.95
2019-02-09T07:18:01.279Z,100171.28
2019-02-09T07:20:32.904Z,100162.03
2019-02-09T07:23:04.417Z,100164.22
2019-02-09T07:25:36.093Z,100175.63
2019-02-09T07:28:07.772Z,100175.12
2019-02-09T07:30:39.541Z,100165.00
2019-02-09T07:33:11.003Z,100168.16
2019-02-09T07:35:43.867Z,100161.38
2019-02-09T07:38:15.455Z,100158.36
2019-02-09T07:40:47.128Z,100157.05
2019-02-09T07:43:18.638Z,100154.26
2019-02-09T07:45:50.195Z,100147.44
2019-02-09T07:48:21.673Z,100152.34
2019-02-09T07:50:54.294Z,100138.05
2019-02-09T07:53:26.095Z,100123.77
2019-02-09T07:55:57.595Z,100124.55
2019-02-09T07:58:29.075Z,100119.22
2019-02-09T08:01:00.718Z,100121.11
2019-02-09T08:03:32.353Z,100119.20
2019-02-09T08:06:04.417Z,100113.20
2019-02-09T08:08:35.969Z,100114.87
2019-02-09T08:11:09.231Z,100112.82
2019-02-09T08:13:40.749Z,100105.81
2019-02-09T08:16:12.589Z,100109.11
2019-02-09T08:18:44.320Z,100098.06
2019-02-09T08:21:16.436Z,100089.52
2019-02-09T08:23:48.976Z,100082.80
2019-02-09T08:26:20.749Z,100076.49
2019-02-09T08:28:53.506Z,100075.80
2019-02-09T08:31:25.394Z,100071.73
2019-02-09T08:33:57.122Z,100061.09
2019-02-09T08:36:29.290Z,100070.54
2019-02-09T08:39:00.839Z,100070.41
2019-02-09T08:41:34.170Z,100066.66
2019-02-09T08:44:05.747Z,100059.27
2019-02-09T08:46:38.072Z,100062.56
2019-02-09T08:49:09.661Z,100058.30
2019-02-09T08:51:41.621Z,100053.49
2019-02-09T08:54:13.212Z,100053.30
2019-02-09T08:56:44.745Z,100044.05
2019-02-09T08:59:16.556Z,100045.32
2019-02-09T09:01:48.126Z,100042.20
2019-02-09T09:04:19.596Z,100038.16
2019-02-09T09:06:51.342Z,100041.00
2019-02-09T09:09:23.018Z,100044.32
2019-02-09T09:11:54.754Z,100036.23
2019-02-09T09:14:26.281Z,100035.62
2019-02-09T09:16:58.279Z,100034.69
2019-02-09T09:19:29.939Z,100025.36
2019-02-09T09:22:01.570Z,100027.75
2019-02-09T09:24:33.232Z,100024.66
2019-02-09T09:27:05.019Z,100035.38
2019-02-09T09:29:36.596Z,100028.44
2019-02-09T09:32:08.412Z,100039.00
2019-02-09T09:34:39.898Z,100033.47
2019-02-09T09:37:11.441Z,100022.01
2019-02-09T09:39:43.168Z,100012.81
2019-02-09T09:42:16.978Z,100023.52
2019-02-09T09:44:48.450Z,100004.68
2019-02-09T09:47:19.980Z,100012.96
2019-02-09T09:49:51.820Z,100013.72
2019-02-09T09:52:23.639Z,100002.47
2019-02-09T09:54:55.352Z,99999.55
2019-02-09T09:57:27.038Z,99999.94
2019-02-09T09:59:58.661Z,99995.27
2019-02-09T10:02:36.452Z,99988.75
2019-02-09T10:05:03.980Z,99980.40
2019-02-09T10:07:35.924Z,99973.13
2019-02-09T10:10:10.187Z,99974.75
2019-02-09T10:12:41.986Z,99978.55
2019-02-09T10:15:16.277Z,99968.67
2019-02-09T10:17:48.386Z,99971.82
2019-02-09T10:20:22.358Z,99972.14
2019-02-09T10:22:54.158Z,99986.84
2019-02-09T10:25:25.725Z,99974.06
2019-02-09T10:27:57.362Z,99967.38
2019-02-09T10:30:30.017Z,99957.71
2019-02-09T10:33:02.249Z,99969.20
2019-02-09T10:35:33.903Z,99964.16
2019-02-09T10:38:05.825Z,99953.89
2019-02-09T10:40:38.006Z,99948.60
2019-02-09T10:43:09.846Z,99948.72
2019-02-09T10:45:41.937Z,99953.17
2019-02-09T10:48:13.791Z,99949.72
2019-02-09T10:50:46.944Z,99935.91
2019-02-09T10:53:18.973Z,99943.43
2019-02-09T10:55:50.556Z,99942.78
2019-02-09T10:58:22.247Z,99948.02
2019-02-09T11:01:06.904Z,99938.25
2019-02-09T11:03:38.509Z,99917.91
2019-02-09T11:06:10.015Z,99913.84
2019-02-09T11:08:41.688Z,99912.50
2019-02-09T11:11:13.395Z,99914.47
2019-02-09T11:13:45.298Z,99920.28
2019-02-09T11:16:16.769Z,99931.23
2019-02-09T11:18:48.607Z,99939.44
2019-02-09T11:21:20.069Z,99940.97
2019-02-09T11:23:52.035Z,99937.67
2019-02-09T11:26:23.781Z,99927.14
2019-02-09T11:28:55.301Z,99933.91
2019-02-09T11:31:26.839Z,99919.16
2019-02-09T11:33:58.553Z,99928.60
2019-02-09T11:36:30.148Z,99921.94
2019-02-09T11:39:01.951Z,99920.84
2019-02-09T11:41:35.421Z,99922.52
2019-02-09T11:44:07.219Z,99913.57
2019-02-09T11:46:38.747Z,99918.58
2019-02-09T11:49:10.546Z,99916.28
2019-02-09T11:51:42.292Z,99910.48
2019-02-09T11:54:14.147Z,99906.22
2019-02-09T11:56:45.997Z,99905.73
2019-02-09T11:59:17.786Z,99888.61
2019-02-09T12:01:49.354Z,99889.27
2019-02-09T12:04:21.197Z,99891.45
2019-02-09T12:06:52.713Z,99891.41
2019-02-09T12:09:24.392Z,99884.26
2019-02-09T12:11:56.316Z,99896.50
2019-02-09T12:14:28.243Z,99893.14
2019-02-09T12:16:59.824Z,99892.53
2019-02-09T12:19:31.382Z,99886.30
2019-02-09T12:22:02.871Z,99888.44
2019-02-09T12:24:34.580Z,99885.43
2019-02-09T12:27:06.337Z,99896.19
2019-02-09T12:29:38.174Z,99891.22
2019-02-09T12:32:09.788Z,99901.77
2019-02-09T12:34:41.692Z,99899.23
2019-02-09T12:37:13.222Z,99903.20
2019-02-09T12:39:45.288Z,99897.66
2019-02-09T12:42:17.048Z,99900.61
2019-02-09T12:44:48.837Z,99891.37
2019-02-09T12:47:20.358Z,99902.97
2019-02-09T12:49:52.328Z,99903.45
2019-02-09T12:52:23.830Z,99896.38
2019-02-09T12:54:55.748Z,99900.95
2019-02-09T12:57:27.632Z,99895.47
2019-02-09T12:59:59.179Z,99901.75
2019-02-09T13:02:31.017Z,99900.51
2019-02-09T13:05:02.870Z,99913.52
2019-02-09T13:07:34.350Z,99902.34
2019-02-09T13:10:06.919Z,99898.83
2019-02-09T13:12:38.443Z,99909.56
2019-02-09T13:15:13.831Z,99909.44
2019-02-09T13:17:45.366Z,99917.00
2019-02-09T13:20:20.060Z,99920.95
2019-02-09T13:22:51.532Z,99915.49
2019-02-09T13:25:23.415Z,99936.36
2019-02-09T13:27:55.199Z,99932.45
2019-02-09T13:30:32.105Z,99933.89
2019-02-09T13:33:03.633Z,99944.83
2019-02-09T13:35:36.087Z,99939.03
2019-02-09T13:38:07.600Z,99948.34
2019-02-09T13:40:39.806Z,99952.05
2019-02-09T13:43:11.633Z,99950.52
2019-02-09T13:45:47.755Z,99937.48
2019-02-09T13:48:19.389Z,99933.66
2019-02-09T13:50:51.007Z,99929.45
2019-02-09T13:53:22.532Z,99927.22
2019-02-09T13:55:54.101Z,99920.02
2019-02-09T13:58:26.066Z,99931.81
2019-02-09T14:00:57.675Z,99910.36
2019-02-09T14:03:29.145Z,99916.86
2019-02-09T14:06:07.887Z,99916.81
2019-02-09T14:08:33.968Z,99915.86
2019-02-09T14:11:05.553Z,99915.30
2019-02-09T14:13:37.479Z,99911.13
2019-02-09T14:16:10.879Z,99906.02
2019-02-09T14:18:42.542Z,99900.67
2019-02-09T14:21:14.322Z,99901.31
2019-02-09T14:23:45.951Z,99904.08
2019-02-09T14:26:17.815Z,99901.62
2019-02-09T14:28:49.743Z,99896.92
2019-02-09T14:31:21.906Z,99893.88
2019-02-09T14:33:55.061Z,99900.59
2019-02-09T14:36:26.830Z,99903.32
2019-02-09T14:38:58.647Z,99904.98
2019-02-09T14:41:30.551Z,99908.30
2019-02-09T14:44:02.423Z,99900.44
2019-02-09T14:46:34.251Z,99909.69
2019-02-09T14:49:05.844Z,99909.13
2019-02-09T14:51:38.769Z,99900.14
2019-02-09T14:54:10.641Z,99907.90
2019-02-09T14:56:42.406Z,99884.08
2019-02-09T14:59:14.371Z,99893.52
2019-02-09T15:01:45.906Z,99907.48
2019-02-09T15:04:17.468Z,99923.16
2019-02-09T15:06:49.094Z,99921.72
2019-02-09T15:09:20.734Z,99922.74
2019-02-09T15:11:52.514Z,99931.96
2019-02-09T15:14:24.330Z,99933.76
2019-02-09T15:17:05.038Z,99932.01
2019-02-09T15:19:38.158Z,99931.17
2019-02-09T15:22:10.032Z,99929.28
2019-02-09T15:24:41.529Z,99935.33
2019-02-09T15:27:13.151Z,99941.15
2019-02-09T15:29:44.871Z,99936.08
2019-02-09T15:32:16.649Z,99944.61
2019-02-09T15:34:48.185Z,99935.69
2019-02-09T15:37:19.854Z,99936.79
2019-02-09T15:39:51.471Z,99942.29
2019-02-09T15:42:23.377Z,99942.80
2019-02-09T15:44:55.003Z,99940.36
2019-02-09T15:47:26.905Z,99935.30
2019-02-09T15:49:58.374Z,99932.81
2019-02-09T15:52:30.229Z,99932.66
2019-02-09T15:55:01.749Z,99938.41
2019-02-09T15:57:33.740Z,99931.50
2019-02-09T16:00:07.974Z,99943.53
2019-02-09T16:02:39.915Z,99937.80
2019-02-09T16:06:16.313Z,99947.11
2019-02-09T16:08:47.990Z,99944.12
2019-02-09T16:11:19.511Z,99941.20
2019-02-09T16:13:51.365Z,99949.36
2019-02-09T16:16:22.918Z,99950.13
2019-02-09T16:18:54.680Z,99958.86
2019-02-09T16:21:26.338Z,99956.51
2019-02-09T16:23:58.204Z,99962.31
2019-02-09T16:26:29.757Z,99968.82
2019-02-09T16:29:01.485Z,99965.78
2019-02-09T16:31:33.379Z,99972.73
2019-02-09T16:34:05.228Z,99970.66
2019-02-09T16:36:36.796Z,99974.28
2019-02-09T16:39:10.181Z,99975.33
2019-02-09T16:41:42.076Z,99981.23
2019-02-09T16:44:14.218Z,99982.31
2019-02-09T16:46:45.937Z,99989.30
2019-02-09T16:49:17.816Z,99975.27
2019-02-09T16:51:49.407Z,99970.52
2019-02-09T16:54:21.264Z,99978.02
2019-02-09T16:56:52.807Z,99984.38
2019-02-09T16:59:24.764Z,99986.22
2019-02-09T17:01:56.358Z,99986.69
2019-02-09T17:04:33.086Z,99988.31
2019-02-09T17:07:01.496Z,99992.12
2019-02-09T17:09:33.417Z,99989.42
2019-02-09T17:12:04.929Z,99994.13
2019-02-09T17:14:36.967Z,99992.89
2019-02-09T17:17:08.736Z,99995.16
2019-02-09T17:19:40.347Z,100002.13
2019-02-09T17:22:11.892Z,100003.37
2019-02-09T17:24:43.600Z,99997.33
2019-02-09T17:27:15.269Z,99995.46
2019-02-09T17:29:46.823Z,100007.33
2019-02-09T17:32:18.534Z,99994.98
2019-02-09T17:34:50.219Z,99999.43
2019-02-09T17:37:21.734Z,100004.28
2019-02-09T17:39:53.524Z,100003.81
2019-02-09T17:42:25.069Z,100013.15
2019-02-09T17:44:56.865Z,100006.11
2019-02-09T17:47:28.781Z,100010.39
2019-02-09T17:50:00.745Z,100005.27
2019-02-09T17:52:32.413Z,100009.66
2019-02-09T17:55:04.261Z,100013.94
2019-02-09T17:57:35.941Z,100005.28
2019-02-09T18:00:14.012Z,100012.27
2019-02-09T18:02:45.578Z,100002.78
2019-02-09T18:05:17.340Z,100010.42
2019-02-09T18:07:48.819Z,100018.92
2019-02-09T18:10:20.963Z,100020.70
2019-02-09T18:12:52.487Z,100013.98
2019-02-09T18:15:24.277Z,100011.33
2019-02-09T18:17:55.764Z,100012.16
2019-02-09T18:20:27.967Z,100016.67
2019-02-09T18:22:59.682Z,100009.87
2019-02-09T18:25:31.407Z,100017.98
2019-02-09T18:28:02.992Z,100016.19
2019-02-09T18:30:34.682Z,100009.55
2019-02-09T18:33:06.529Z,100023.08
2019-02-09T18:35:38.557Z,100019.23
2019-02-09T18:38:10.155Z,100023.73
2019-02-09T18:40:41.630Z,100022.92
2019-02-09T18:43:13.182Z,100017.86
2019-02-09T18:45:44.888Z,100019.09
2019-02-09T18:48:16.460Z,100015.53
2019-02-09T18:50:48.119Z,100025.75
2019-02-09T18:53:19.603Z,100031.17
2019-02-09T18:55:51.645Z,100027.34
2019-02-09T18:58:23.414Z,100020.14
2019-02-09T19:00:55.322Z,100030.17
2019-02-09T19:03:27.277Z,100030.81
2019-02-09T19:05:59.260Z,100030.83
2019-02-09T19:08:31.251Z,100033.91
2019-02-09T19:11:02.895Z,100036.44
2019-02-09T19:13:34.809Z,100026.38
2019-02-09T19:16:07.529Z,100039.74
2019-02-09T19:18:40.331Z,100030.30
2019-02-09T19:21:16.243Z,100035.05
2019-02-09T19:23:47.853Z,100040.45
2019-02-09T19:26:19.993Z,100039.30
2019-02-09T19:28:51.599Z,100039.23
2019-02-09T19:31:23.412Z,100048.25
2019-02-09T19:33:55.315Z,100048.11
2019-02-09T19:36:27.120Z,100054.83
2019-02-09T19:38:58.700Z,100055.97
2019-02-09T19:41:30.436Z,100054.96
2019-02-09T19:44:01.969Z,100054.36
2019-02-09T19:46:33.841Z,100059.50
2019-02-09T19:49:05.800Z,100059.27
2019-02-09T19:51:37.689Z,100061.96
2019-02-09T19:54:09.279Z,100052.56
2019-02-09T19:56:41.120Z,100055.39
2019-02-09T19:59:12.778Z,100056.70
2019-02-09T20:01:44.837Z,100051.34
2019-02-09T20:04:16.727Z,100052.80
2019-02-09T20:06:48.744Z,100057.04
2019-02-09T20:09:20.446Z,100043.80
2019-02-09T20:11:52.893Z,100041.95
2019-02-09T20:14:24.607Z,100046.22
2019-02-09T20:16:56.606Z,100039.34
2019-02-09T20:19:28.570Z,100050.13
2019-02-09T20:22:00.532Z,100046.16
2019-02-09T20:24:32.471Z,100047.09
2019-02-09T20:27:04.672Z,100062.95
2019-02-09T20:29:36.686Z,100055.34
2019-02-09T20:32:08.440Z,100045.54
2019-02-09T20:34:40.632Z,100056.28
2019-02-09T20:37:13.039Z,100050.38
2019-02-09T20:39:45.027Z,100056.27
2019-02-09T20:42:16.858Z,100050.73
2019-02-09T20:44:48.693Z,100042.30
2019-02-09T20:47:20.375Z,100049.35
2019-02-09T20:49:52.470Z,100062.45
2019-02-09T20:52:25.340Z,100050.70
2019-02-09T20:54:57.123Z,100060.34
2019-02-09T20:57:28.896Z,100050.13
2019-02-09T21:00:00.849Z,100050.63
2019-02-09T21:02:33.229Z,100045.55
2019-02-09T21:05:06.395Z,100048.83
2019-02-09T21:07:38.326Z,100058.83
2019-02-09T21:10:21.769Z,100062.40
2019-02-09T21:12:54.488Z,100056.83
2019-02-09T21:15:27.884Z,100061.39
2019-02-09T21:18:01.826Z,100059.80
2019-02-09T21:20:33.726Z,100059.27
2019-02-09T21:23:06.518Z,100075.54
2019-02-09T21:25:41.197Z,100068.30
2019-02-09T21:28:13.330Z,100068.23
2019-02-09T21:30:45.231Z,100061.66
2019-02-09T21:33:17.541Z,100055.65
2019-02-09T21:35:50.026Z,100055.25
2019-02-09T21:38:22.189Z,100049.78
2019-02-09T21:40:53.936Z,100054.22
2019-02-09T21:43:26.939Z,100058.08
2019-02-09T21:45:58.882Z,100060.21
2019-02-09T21:48:31.136Z,100052.48
2019-02-09T21:51:02.877Z,100047.80
2019-02-09T21:53:34.885Z,100049.67
2019-02-09T21:56:06.793Z,100055.19
2019-02-09T21:58:38.902Z,100061.58
2019-02-09T22:01:10.721Z,100055.02
2019-02-09T22:03:42.637Z,100054.77
2019-02-09T22:06:14.639Z,100051.51
2019-02-09T22:08:46.896Z,100049.55
2019-02-09T22:11:18.596Z,100051.68
2019-02-09T22:13:50.406Z,100057.78
2019-02-09T22:16:23.225Z,100063.23
2019-02-09T22:18:55.361Z,100063.30
2019-02-09T22:21:28.452Z,100058.81
2019-02-09T22:24:00.385Z,100058.99
2019-02-09T22:26:33.420Z,100058.99
2019-02-09T22:29:05.449Z,100048.34
2019-02-09T22:31:37.224Z,100063.30
2019-02-09T22:34:09.341Z,100054.32
2019-02-09T22:36:41.567Z,100054.13
2019-02-09T22:39:13.605Z,100055.28
2019-02-09T22:41:49.191Z,100058.47
2019-02-09T22:44:18.649Z,100071.16
2019-02-09T22:46:50.181Z,100057.44
2019-02-09T22:49:22.112Z,100058.31
2019-02-09T22:51:53.713Z,100060.02
2019-02-09T22:54:25.335Z,100054.41
2019-02-09T22:56:56.849Z,100057.15
2019-02-09T22:59:28.420Z,100060.68
2019-02-09T23:01:59.897Z,100063.98
2019-02-09T23:05:15.208Z,100051.92
2019-02-09T23:07:47.110Z,100054.34
2019-02-09T23:10:18.954Z,100060.92
2019-02-09T23:12:50.571Z,100059.12
2019-02-09T23:15:22.448Z,100063.53
2019-02-09T23:17:54.014Z,100051.02
2019-02-09T23:20:25.652Z,100054.09
2019-02-09T23:22:57.268Z,100058.73
2019-02-09T23:25:28.964Z,100050.95
2019-02-09T23:28:01.548Z,100053.06
2019-02-09T23:30:33.322Z,100061.50
2019-02-09T23:33:05.029Z,100058.33
2019-02-09T23:35:36.594Z,100078.02
2019-02-09T23:38:08.342Z,100067.10
2019-02-09T23:40:39.886Z,100055.95
2019-02-09T23:43:11.361Z,100054.58
2019-02-09T23:45:42.827Z,100047.89
2019-02-09T23:48:14.348Z,100055.14
2019-02-09T23:50:45.936Z,100050.30
2019-02-09T23:53:17.393Z,100060.84
2019-02-09T23:55:49.153Z,100060.16
2019-02-09T23:58:20.619Z,100055.69
